createdAt,value
2018-12-19T00:00:19.628Z,7.30
2018-12-19T00:02:50.253Z,11.50
2018-12-19T00:05:20.957Z,11.63
2018-12-19T00:07:50.788Z,10.87
2018-12-19T00:10:19.595Z,10.60
2018-12-19T00:12:48.371Z,7.87
2018-12-19T00:15:17.125Z,8.57
2018-12-19T00:17:47.832Z,8.73
2018-12-19T00:20:16.548Z,6.83
2018-12-19T00:22:45.312Z,6.37
2018-12-19T00:30:21.865Z,6.93
2018-12-19T00:32:52.560Z,6.53
2018-12-19T00:35:23.268Z,9.17
2018-12-19T00:37:52.144Z,7.70
2018-12-19T00:40:20.944Z,10.95
2018-12-19T00:42:49.729Z,8.90
2018-12-19T00:45:18.425Z,8.93
2018-12-19T00:47:47.185Z,9.33
2018-12-19T00:50:15.984Z,12.33
2018-12-19T00:52:44.744Z,8.88
2018-12-19T00:55:13.512Z,6.00
2018-12-19T00:57:42.281Z,9.93
2018-12-19T01:00:11.518Z,7.33
2018-12-19T01:02:40.800Z,7.63
2018-12-19T01:05:10.677Z,8.50
2018-12-19T01:07:39.448Z,11.07
2018-12-19T01:10:08.347Z,8.83
2018-12-19T01:12:37.102Z,12.25
2018-12-19T01:15:05.956Z,6.83
2018-12-19T01:17:34.660Z,12.10
2018-12-19T01:20:03.566Z,6.13
2018-12-19T01:22:33.060Z,8.73
2018-12-19T01:25:01.778Z,7.30
2018-12-19T01:27:30.645Z,7.77
2018-12-19T01:29:59.345Z,9.13
2018-12-19T01:32:28.061Z,11.80
2018-12-19T01:34:56.820Z,9.37
2018-12-19T01:37:25.670Z,9.03
2018-12-19T01:39:54.400Z,8.87
2018-12-19T01:42:23.100Z,7.63
2018-12-19T01:44:51.824Z,8.88
2018-12-19T01:47:20.657Z,6.47
2018-12-19T01:49:49.445Z,11.13
2018-12-19T01:52:18.225Z,9.43
2018-12-19T01:54:46.961Z,8.97
2018-12-19T01:57:15.742Z,8.57
2018-12-19T01:59:44.436Z,7.53
2018-12-19T02:02:13.004Z,10.03
2018-12-19T02:04:41.945Z,7.97
2018-12-19T02:07:10.769Z,9.07
2018-12-19T02:09:39.524Z,9.97
2018-12-19T02:12:08.245Z,9.75
2018-12-19T02:14:36.956Z,10.23
2018-12-19T02:17:05.662Z,11.37
2018-12-19T02:19:34.364Z,9.63
2018-12-19T02:22:03.835Z,9.08
2018-12-19T02:24:32.480Z,8.27
2018-12-19T02:27:01.204Z,7.90
2018-12-19T02:29:30.081Z,8.27
2018-12-19T02:31:58.980Z,10.93
2018-12-19T02:34:27.717Z,12.37
2018-12-19T02:36:56.440Z,11.10
2018-12-19T02:39:25.279Z,8.43
2018-12-19T02:41:54.013Z,12.27
2018-12-19T02:44:22.716Z,12.80
2018-12-19T02:46:51.440Z,11.23
2018-12-19T02:49:20.152Z,8.80
2018-12-19T02:51:48.855Z,12.10
2018-12-19T02:54:17.601Z,10.00
2018-12-19T02:56:46.299Z,7.47
2018-12-19T02:59:14.988Z,9.13
2018-12-19T03:01:43.906Z,11.10
2018-12-19T03:04:12.596Z,8.97
2018-12-19T03:06:41.390Z,11.47
2018-12-19T03:09:10.188Z,10.10
2018-12-19T03:11:39.022Z,11.73
2018-12-19T03:14:07.788Z,15.03
2018-12-19T03:16:36.844Z,10.13
2018-12-19T03:19:05.640Z,12.30
2018-12-19T03:21:34.408Z,12.87
2018-12-19T03:24:03.182Z,13.65
2018-12-19T03:26:31.948Z,8.20
2018-12-19T03:29:01.553Z,8.67
2018-12-19T03:31:30.358Z,11.57
2018-12-19T03:33:59.056Z,10.33
2018-12-19T03:36:27.752Z,9.23
2018-12-19T03:38:56.952Z,9.37
2018-12-19T03:41:25.635Z,16.00
2018-12-19T03:43:54.665Z,9.37
2018-12-19T03:46:23.408Z,12.87
2018-12-19T03:48:56.401Z,12.05
2018-12-19T03:51:25.245Z,13.17
2018-12-19T03:53:54.122Z,14.43
2018-12-19T03:56:22.900Z,10.80
2018-12-19T03:58:51.749Z,11.43
2018-12-19T04:01:20.605Z,9.57
2018-12-19T04:03:49.307Z,14.03
2018-12-19T04:06:18.081Z,11.40
2018-12-19T04:08:46.848Z,11.47
2018-12-19T04:11:15.621Z,11.85
2018-12-19T04:13:44.327Z,9.87
2018-12-19T04:16:13.127Z,9.83
2018-12-19T04:18:41.824Z,13.73
2018-12-19T04:21:10.697Z,12.33
2018-12-19T04:23:39.208Z,9.27
2018-12-19T04:26:07.890Z,10.47
2018-12-19T04:28:36.655Z,10.87
2018-12-19T04:31:06.116Z,10.20
2018-12-19T04:33:34.874Z,6.70
2018-12-19T04:36:04.568Z,12.20
2018-12-19T04:38:33.551Z,10.45
2018-12-19T04:41:02.337Z,9.20
2018-12-19T04:43:31.047Z,11.63
2018-12-19T04:45:59.779Z,9.67
2018-12-19T04:48:28.472Z,11.97
2018-12-19T04:50:57.240Z,10.23
2018-12-19T04:53:25.958Z,21.73
2018-12-19T04:55:54.737Z,13.40
2018-12-19T04:58:24.159Z,18.00
2018-12-19T05:00:52.929Z,17.47
2018-12-19T05:03:21.694Z,18.10
2018-12-19T05:05:50.392Z,16.87
2018-12-19T05:08:19.166Z,18.83
2018-12-19T05:10:47.869Z,16.07
2018-12-19T05:13:16.634Z,46.80
2018-12-19T05:15:46.449Z,27.77
2018-12-19T05:18:15.152Z,22.13
2018-12-19T05:20:45.789Z,19.73
2018-12-19T05:23:14.560Z,16.73
2018-12-19T05:25:43.276Z,19.53
2018-12-19T05:28:12.024Z,13.43
2018-12-19T05:30:40.725Z,10.87
2018-12-19T05:33:09.429Z,24.43
2018-12-19T05:35:38.145Z,16.97
2018-12-19T05:38:06.849Z,9.97
2018-12-19T05:40:35.664Z,11.43
2018-12-19T05:43:04.521Z,8.53
2018-12-19T05:45:33.408Z,12.40
2018-12-19T05:48:02.117Z,12.87
2018-12-19T05:50:31.089Z,12.00
2018-12-19T05:52:59.869Z,9.60
2018-12-19T05:55:28.568Z,11.43
2018-12-19T05:57:57.341Z,11.13
2018-12-19T06:00:26.121Z,8.37
2018-12-19T06:02:56.905Z,8.60
2018-12-19T06:05:25.696Z,9.17
2018-12-19T06:07:54.469Z,5.57
2018-12-19T06:10:26.130Z,8.70
2018-12-19T06:12:54.025Z,6.45
2018-12-19T06:15:22.875Z,15.00
2018-12-19T06:17:52.292Z,11.55
2018-12-19T06:20:21.074Z,14.07
2018-12-19T06:22:49.901Z,12.67
2018-12-19T06:25:18.652Z,13.67
2018-12-19T06:27:47.747Z,10.20
2018-12-19T06:30:17.286Z,16.03
2018-12-19T06:32:46.377Z,12.43
2018-12-19T06:35:15.176Z,9.65
2018-12-19T06:37:43.906Z,5.47
2018-12-19T06:40:12.594Z,8.90
2018-12-19T06:42:41.400Z,11.60
2018-12-19T06:45:10.172Z,11.00
2018-12-19T06:47:39.002Z,12.37
2018-12-19T06:50:09.186Z,10.28
2018-12-19T06:52:37.928Z,12.33
2018-12-19T06:55:06.790Z,11.70
2018-12-19T06:57:35.732Z,10.23
2018-12-19T07:00:06.887Z,11.73
2018-12-19T07:02:35.677Z,9.37
2018-12-19T07:05:05.942Z,9.47
2018-12-19T07:07:34.751Z,14.27
2018-12-19T07:10:03.560Z,10.40
2018-12-19T07:12:32.296Z,13.70
2018-12-19T07:15:01.919Z,13.50
2018-12-19T07:17:30.654Z,15.50
2018-12-19T07:19:59.353Z,15.37
2018-12-19T07:22:28.124Z,17.60
2018-12-19T07:24:56.827Z,17.07
2018-12-19T07:27:25.604Z,22.73
2018-12-19T07:29:54.457Z,14.47
2018-12-19T07:32:23.273Z,14.83
2018-12-19T07:34:52.196Z,13.83
2018-12-19T07:37:20.971Z,15.97
2018-12-19T07:39:49.678Z,11.60
2018-12-19T07:42:18.458Z,17.50
2018-12-19T07:44:47.938Z,15.97
2018-12-19T07:47:16.748Z,15.63
2018-12-19T07:49:45.816Z,12.67
2018-12-19T07:52:14.516Z,8.70
2018-12-19T07:54:43.228Z,15.53
2018-12-19T07:57:11.973Z,15.30
2018-12-19T07:59:40.732Z,17.40
2018-12-19T08:02:10.520Z,18.83
2018-12-19T08:04:39.324Z,22.15
2018-12-19T08:07:08.032Z,17.52
2018-12-19T08:09:36.870Z,13.80
2018-12-19T08:12:05.657Z,15.53
2018-12-19T08:14:34.364Z,14.17
2018-12-19T08:17:03.296Z,15.77
2018-12-19T08:19:32.083Z,14.73
2018-12-19T08:22:00.807Z,19.20
2018-12-19T08:24:29.603Z,14.83
2018-12-19T08:26:58.346Z,19.62
2018-12-19T08:29:27.129Z,17.87
2018-12-19T08:31:55.889Z,13.97
2018-12-19T08:34:24.601Z,19.25
2018-12-19T08:36:53.371Z,17.13
2018-12-19T08:39:22.680Z,13.68
2018-12-19T08:41:51.821Z,21.42
2018-12-19T08:44:20.640Z,25.40
2018-12-19T08:46:49.345Z,18.93
2018-12-19T08:49:18.106Z,23.83
2018-12-19T08:51:46.873Z,22.35
2018-12-19T08:54:15.692Z,20.57
2018-12-19T08:56:44.476Z,13.93
2018-12-19T08:59:13.194Z,14.85
2018-12-19T09:01:41.921Z,17.55
2018-12-19T09:04:10.716Z,14.00
2018-12-19T09:06:39.540Z,20.77
2018-12-19T09:09:08.246Z,14.73
2018-12-19T09:11:37.061Z,12.47
2018-12-19T09:14:05.856Z,14.47
2018-12-19T09:16:34.660Z,16.23
2018-12-19T09:19:03.500Z,12.43
2018-12-19T09:21:32.268Z,15.77
2018-12-19T09:24:00.996Z,20.87
2018-12-19T09:26:29.693Z,19.10
2018-12-19T09:28:58.466Z,16.90
2018-12-19T09:31:27.231Z,18.07
2018-12-19T09:33:56.004Z,15.60
2018-12-19T09:36:24.768Z,17.50
2018-12-19T09:38:53.607Z,13.90
2018-12-19T09:41:22.305Z,16.17
2018-12-19T09:43:51.048Z,15.48
2018-12-19T09:46:19.885Z,18.90
2018-12-19T09:48:48.653Z,17.33
2018-12-19T09:51:17.412Z,15.27
2018-12-19T09:53:46.792Z,17.93
2018-12-19T09:56:15.619Z,15.70
2018-12-19T09:58:44.320Z,16.53
2018-12-19T10:01:13.087Z,18.07
2018-12-19T10:03:41.800Z,19.30
2018-12-19T10:06:10.568Z,17.83
2018-12-19T10:08:39.292Z,17.62
2018-12-19T10:11:08.120Z,19.57
2018-12-19T10:13:36.832Z,11.40
2018-12-19T10:16:05.678Z,18.67
2018-12-19T10:18:34.609Z,14.03
2018-12-19T10:21:03.442Z,13.00
2018-12-19T10:23:32.456Z,16.83
2018-12-19T10:26:05.484Z,12.07
2018-12-19T10:28:35.291Z,14.93
2018-12-19T10:31:04.288Z,14.83
2018-12-19T10:33:33.100Z,17.73
2018-12-19T10:36:01.798Z,18.20
2018-12-19T10:38:30.642Z,15.43
2018-12-19T10:40:59.415Z,13.97
2018-12-19T10:43:28.160Z,16.35
2018-12-19T10:45:56.860Z,16.10
2018-12-19T10:48:25.564Z,14.73
2018-12-19T10:50:54.336Z,14.93
2018-12-19T10:53:23.113Z,18.10
2018-12-19T10:55:51.881Z,24.77
2018-12-19T10:58:20.597Z,26.03
2018-12-19T11:00:54.997Z,26.52
2018-12-19T11:03:23.792Z,30.87
2018-12-19T11:05:54.461Z,28.07
2018-12-19T11:08:23.357Z,67.47
2018-12-19T11:10:52.061Z,29.63
2018-12-19T11:13:20.839Z,26.70
2018-12-19T11:15:49.673Z,54.60
2018-12-19T11:18:18.450Z,37.30
2018-12-19T11:20:47.277Z,29.02
2018-12-19T11:23:16.083Z,14.23
2018-12-19T11:25:44.848Z,17.50
2018-12-19T11:28:13.549Z,24.67
2018-12-19T11:30:42.414Z,21.80
2018-12-19T11:33:11.208Z,12.73
2018-12-19T11:35:40.061Z,14.53
2018-12-19T11:38:08.876Z,16.73
2018-12-19T11:40:38.589Z,16.27
2018-12-19T11:43:07.407Z,12.97
2018-12-19T11:45:36.255Z,17.52
2018-12-19T11:48:05.019Z,16.07
2018-12-19T11:50:33.856Z,12.47
2018-12-19T11:53:02.736Z,16.90
2018-12-19T11:55:31.524Z,20.12
2018-12-19T11:58:00.225Z,24.87
2018-12-19T12:00:29.076Z,162.73
2018-12-19T12:02:57.791Z,475.30
2018-12-19T12:05:26.589Z,339.03
2018-12-19T12:07:55.324Z,79.97
2018-12-19T12:10:24.100Z,15.03
2018-12-19T12:12:52.828Z,18.70
2018-12-19T12:15:21.628Z,12.67
2018-12-19T12:17:50.465Z,15.63
2018-12-19T12:20:19.293Z,16.37
2018-12-19T12:22:48.202Z,14.13
2018-12-19T12:25:16.988Z,16.40
2018-12-19T12:27:45.687Z,13.63
2018-12-19T12:30:14.544Z,12.37
2018-12-19T12:32:43.342Z,14.63
2018-12-19T12:35:12.234Z,15.23
2018-12-19T12:37:41.093Z,14.87
2018-12-19T12:40:10.003Z,14.03
2018-12-19T12:42:38.944Z,12.70
2018-12-19T12:45:07.990Z,13.90
2018-12-19T12:47:36.892Z,16.23
2018-12-19T12:50:06.023Z,21.10
2018-12-19T12:52:34.818Z,23.40
2018-12-19T12:55:05.120Z,17.33
2018-12-19T12:57:33.849Z,15.90
2018-12-19T13:00:02.718Z,20.33
2018-12-19T13:02:31.468Z,12.60
2018-12-19T13:05:00.200Z,17.90
2018-12-19T13:07:28.926Z,15.00
2018-12-19T13:09:58.061Z,17.50
2018-12-19T13:12:26.861Z,15.43
2018-12-19T13:14:55.771Z,18.67
2018-12-19T13:17:24.481Z,14.68
2018-12-19T13:19:53.185Z,19.12
2018-12-19T13:22:21.972Z,15.60
2018-12-19T13:24:50.817Z,21.40
2018-12-19T13:27:19.612Z,16.00
2018-12-19T13:29:48.544Z,20.08
2018-12-19T13:32:17.509Z,18.62
2018-12-19T13:34:46.310Z,22.50
2018-12-19T13:37:15.112Z,23.32
2018-12-19T13:39:43.873Z,17.85
2018-12-19T13:42:12.594Z,19.27
2018-12-19T13:44:41.440Z,20.40
2018-12-19T13:47:10.145Z,17.67
2018-12-19T13:49:38.844Z,21.53
2018-12-19T13:52:07.621Z,22.40
2018-12-19T13:54:36.683Z,20.93
2018-12-19T13:57:06.328Z,18.93
2018-12-19T13:59:35.177Z,19.52
2018-12-19T14:02:04.083Z,21.90
2018-12-19T14:04:33.356Z,22.17
2018-12-19T14:07:02.193Z,36.60
2018-12-19T14:09:30.933Z,28.60
2018-12-19T14:11:59.752Z,25.77
2018-12-19T14:14:28.601Z,25.97
2018-12-19T14:16:57.376Z,21.62
2018-12-19T14:19:27.240Z,23.37
2018-12-19T14:21:56.076Z,21.30
2018-12-19T14:24:24.908Z,24.30
2018-12-19T14:26:53.624Z,22.25
2018-12-19T14:29:22.452Z,20.57
2018-12-19T14:31:51.175Z,18.45
2018-12-19T14:34:19.939Z,18.47
2018-12-19T14:36:48.833Z,22.23
2018-12-19T14:39:17.773Z,13.43
2018-12-19T14:41:46.652Z,20.87
2018-12-19T14:44:15.383Z,14.57
2018-12-19T14:46:44.231Z,19.97
2018-12-19T14:49:14.043Z,17.23
2018-12-19T14:51:43.204Z,13.95
2018-12-19T14:54:12.010Z,17.80
2018-12-19T14:56:40.837Z,20.00
2018-12-19T14:59:09.644Z,21.13
2018-12-19T15:01:38.448Z,16.15
2018-12-19T15:04:07.208Z,17.48
2018-12-19T15:06:36.017Z,21.60
2018-12-19T15:09:06.160Z,20.13
2018-12-19T15:11:36.844Z,17.20
2018-12-19T15:14:05.687Z,20.57
2018-12-19T15:16:34.616Z,21.73
2018-12-19T15:19:03.437Z,18.73
2018-12-19T15:21:32.304Z,19.37
2018-12-19T15:24:02.207Z,18.25
2018-12-19T15:26:31.242Z,18.33
2018-12-19T15:29:00.392Z,21.93
2018-12-19T15:31:29.185Z,17.63
2018-12-19T15:33:57.954Z,20.90
2018-12-19T15:36:26.844Z,17.00
2018-12-19T15:38:55.549Z,18.20
2018-12-19T15:41:24.357Z,19.47
2018-12-19T15:43:53.118Z,18.20
2018-12-19T15:46:21.868Z,21.13
2018-12-19T15:48:50.828Z,15.27
2018-12-19T15:51:19.560Z,24.50
2018-12-19T15:53:48.571Z,22.10
2018-12-19T15:56:17.287Z,20.40
2018-12-19T15:58:45.992Z,19.07
2018-12-19T16:01:15.012Z,17.40
2018-12-19T16:03:43.785Z,16.27
2018-12-19T16:06:12.552Z,15.23
2018-12-19T16:08:41.406Z,20.48
2018-12-19T16:11:10.157Z,24.13
2018-12-19T16:13:38.981Z,21.70
2018-12-19T16:16:07.796Z,20.20
2018-12-19T16:18:37.582Z,15.80
2018-12-19T16:21:06.285Z,17.83
2018-12-19T16:23:35.196Z,19.67
2018-12-19T16:26:04.044Z,16.93
2018-12-19T16:28:32.793Z,17.17
2018-12-19T16:31:01.584Z,24.30
2018-12-19T16:33:30.343Z,19.33
2018-12-19T16:35:59.116Z,21.23
2018-12-19T16:38:28.016Z,16.57
2018-12-19T16:40:56.733Z,19.17
2018-12-19T16:43:25.574Z,20.43
2018-12-19T16:45:54.308Z,20.00
2018-12-19T16:48:23.281Z,20.60
2018-12-19T16:50:52.076Z,17.77
2018-12-19T16:53:20.845Z,16.40
2018-12-19T16:55:49.609Z,20.53
2018-12-19T16:58:18.450Z,18.47
2018-12-19T17:00:47.356Z,14.27
2018-12-19T17:03:16.071Z,15.33
2018-12-19T17:05:44.821Z,18.87
2018-12-19T17:08:13.673Z,19.67
2018-12-19T17:10:42.633Z,17.37
2018-12-19T17:13:11.431Z,16.50
2018-12-19T17:15:40.131Z,23.50
2018-12-19T17:18:08.990Z,21.30
2018-12-19T17:20:37.775Z,28.65
2018-12-19T17:23:06.649Z,22.77
2018-12-19T17:25:35.429Z,19.37
2018-12-19T17:28:04.377Z,23.25
2018-12-19T17:30:33.284Z,35.98
2018-12-19T17:33:02.009Z,42.43
2018-12-19T17:35:30.757Z,41.37
2018-12-19T17:37:59.481Z,44.80
2018-12-19T17:40:28.184Z,47.40
2018-12-19T17:42:59.480Z,48.45
2018-12-19T17:45:27.732Z,51.20
2018-12-19T17:47:56.582Z,60.70
2018-12-19T17:50:25.421Z,32.70
2018-12-19T17:52:54.136Z,26.48
2018-12-19T17:55:22.883Z,33.07
2018-12-19T17:57:52.220Z,40.70
2018-12-19T18:00:21.142Z,37.20
2018-12-19T18:02:50.020Z,30.17
2018-12-19T18:05:18.724Z,30.53
2018-12-19T18:07:47.440Z,48.17
2018-12-19T18:10:16.821Z,37.50
2018-12-19T18:12:45.696Z,31.70
2018-12-19T18:15:14.482Z,39.80
2018-12-19T18:17:43.366Z,43.47
2018-12-19T18:20:12.200Z,25.43
2018-12-19T18:22:41.137Z,23.07
2018-12-19T18:25:10.192Z,24.67
2018-12-19T18:27:38.932Z,20.27
2018-12-19T18:30:08.840Z,30.13
2018-12-19T18:32:37.581Z,25.80
2018-12-19T18:35:07.357Z,26.83
2018-12-19T18:37:36.072Z,35.30
2018-12-19T18:40:05.009Z,30.63
2018-12-19T18:42:33.880Z,26.87
2018-12-19T18:45:02.584Z,23.67
2018-12-19T18:47:32.344Z,19.17
2018-12-19T18:50:01.040Z,18.73
2018-12-19T18:52:29.788Z,22.67
2018-12-19T18:54:58.929Z,26.63
2018-12-19T18:57:27.763Z,26.13
2018-12-19T18:59:56.572Z,35.77
2018-12-19T19:02:25.322Z,37.38
2018-12-19T19:04:54.220Z,64.50
2018-12-19T19:07:23.107Z,67.73
2018-12-19T19:09:51.900Z,84.73
2018-12-19T19:12:20.786Z,86.15
2018-12-19T19:14:50.425Z,69.70
2018-12-19T19:17:19.260Z,59.50
2018-12-19T19:19:47.996Z,41.70
2018-12-19T19:22:16.704Z,37.73
2018-12-19T19:24:45.665Z,66.77
2018-12-19T19:27:15.477Z,39.33
2018-12-19T19:29:44.289Z,40.60
2018-12-19T19:32:13.064Z,53.83
2018-12-19T19:34:41.924Z,36.13
2018-12-19T19:37:10.780Z,30.67
2018-12-19T19:39:39.502Z,30.03
2018-12-19T19:42:08.270Z,28.02
2018-12-19T19:44:37.120Z,39.40
2018-12-19T19:47:06.011Z,41.33
2018-12-19T19:49:34.762Z,29.87
2018-12-19T19:52:03.566Z,35.20
2018-12-19T19:54:32.473Z,42.67
2018-12-19T19:57:01.505Z,34.60
2018-12-19T19:59:31.389Z,41.03
2018-12-19T20:02:00.101Z,45.58
2018-12-19T20:04:28.890Z,41.67
2018-12-19T20:07:00.921Z,46.00
2018-12-19T20:09:28.468Z,36.07
2018-12-19T20:11:57.536Z,40.43
2018-12-19T20:14:26.394Z,41.67
2018-12-19T20:17:01.415Z,33.30
2018-12-19T20:19:30.543Z,44.47
2018-12-19T20:21:59.280Z,40.07
2018-12-19T20:24:28.096Z,36.15
2018-12-19T20:26:56.905Z,45.13
2018-12-19T20:29:25.644Z,42.87
2018-12-19T20:31:54.361Z,44.10
2018-12-19T20:34:23.249Z,52.23
2018-12-19T20:36:51.989Z,42.20
2018-12-19T20:43:06.922Z,46.23
2018-12-19T20:45:35.905Z,37.53
2018-12-19T20:48:04.801Z,36.70
2018-12-19T20:50:33.517Z,36.37
2018-12-19T20:53:02.470Z,38.15
2018-12-19T20:55:31.268Z,38.03
2018-12-19T20:58:00.179Z,47.80
2018-12-19T21:00:29.115Z,38.80
2018-12-19T21:02:58.013Z,35.33
2018-12-19T21:05:27.433Z,36.27
2018-12-19T21:07:56.326Z,34.97
2018-12-19T21:10:25.053Z,37.40
2018-12-19T21:12:53.856Z,37.17
2018-12-19T21:15:22.645Z,36.83
2018-12-19T21:18:55.696Z,31.87
2018-12-19T21:21:24.412Z,29.17
2018-12-19T21:23:53.342Z,29.30
2018-12-19T21:26:22.128Z,30.27
2018-12-19T21:28:51.081Z,26.97
2018-12-19T21:31:19.872Z,27.80
2018-12-19T21:33:51.944Z,34.73
2018-12-19T21:36:20.789Z,31.73
2018-12-19T21:38:49.943Z,28.03
2018-12-19T21:41:18.681Z,32.83
2018-12-19T21:43:53.422Z,32.20
2018-12-19T21:46:18.381Z,30.45
2018-12-19T21:48:47.730Z,33.18
2018-12-19T21:51:16.464Z,34.20
2018-12-19T21:53:45.247Z,29.67
2018-12-19T21:56:14.234Z,31.33
2018-12-19T21:58:43.058Z,26.33
2018-12-19T22:01:12.000Z,35.70
2018-12-19T22:03:40.804Z,33.17
2018-12-19T22:06:09.663Z,26.97
2018-12-19T22:08:38.523Z,28.10
2018-12-19T22:11:07.418Z,25.85
2018-12-19T22:13:36.245Z,25.43
2018-12-19T22:16:05.199Z,18.42
2018-12-19T22:18:54.765Z,25.17
2018-12-19T22:21:23.516Z,22.60
2018-12-19T22:23:52.375Z,24.10
2018-12-19T22:26:21.111Z,22.02
2018-12-19T22:28:49.918Z,19.50
2018-12-19T22:31:18.623Z,16.85
2018-12-19T22:33:47.391Z,17.77
2018-12-19T22:36:16.637Z,20.37
2018-12-19T22:38:45.341Z,20.68
2018-12-19T22:41:14.180Z,21.25
2018-12-19T22:43:43.031Z,22.10
2018-12-19T22:46:11.806Z,21.53
2018-12-19T22:48:40.576Z,18.53
2018-12-19T22:51:09.492Z,16.40
2018-12-19T22:53:38.397Z,19.90
2018-12-19T22:56:07.225Z,20.20
2018-12-19T22:58:36.018Z,22.15
2018-12-19T23:01:10.852Z,28.43
2018-12-19T23:03:45.001Z,19.03
2018-12-19T23:06:13.838Z,25.93
2018-12-19T23:08:42.548Z,30.63
2018-12-19T23:11:11.340Z,30.20
2018-12-19T23:13:40.140Z,27.73
2018-12-19T23:16:08.449Z,28.07
2018-12-19T23:18:42.914Z,31.17
2018-12-19T23:21:17.460Z,31.30
2018-12-19T23:23:51.849Z,31.48
2018-12-19T23:26:22.401Z,23.70
2018-12-19T23:28:57.418Z,25.17
2018-12-19T23:31:26.496Z,25.93
2018-12-19T23:33:55.361Z,20.80
2018-12-19T23:36:24.269Z,24.43
2018-12-19T23:38:53.127Z,24.20
2018-12-19T23:41:22.035Z,28.00
2018-12-19T23:43:51.008Z,29.33
2018-12-19T23:46:19.862Z,28.43
2018-12-19T23:48:48.660Z,22.23
2018-12-19T23:51:17.543Z,23.80
2018-12-19T23:53:47.231Z,32.33
2018-12-19T23:56:15.955Z,26.10
2018-12-19T23:58:44.817Z,25.53
